createdAt,value
2023-06-29T00:00:34.600Z,46.5120
2023-06-29T00:01:36.908Z,46.4800
2023-06-29T00:02:39.121Z,46.4800
2023-06-29T00:03:41.438Z,46.4640
2023-06-29T00:04:43.701Z,46.5200
2023-06-29T00:05:44.064Z,46.5720
2023-06-29T00:06:46.188Z,46.5890
2023-06-29T00:07:46.314Z,46.6230
2023-06-29T00:08:48.630Z,46.6470
2023-06-29T00:09:50.861Z,46.6870
2023-06-29T00:10:53.131Z,46.7280
2023-06-29T00:11:55.466Z,46.7260
2023-06-29T00:12:57.653Z,46.7620
2023-06-29T00:13:59.940Z,46.8220
2023-06-29T00:15:02.196Z,46.8650
2023-06-29T00:16:04.495Z,46.8170
2023-06-29T00:17:06.682Z,46.8310
2023-06-29T00:18:08.909Z,46.8010
2023-06-29T00:19:11.140Z,46.7200
2023-06-29T00:20:13.437Z,46.7700
2023-06-29T00:21:15.683Z,46.7540
2023-06-29T00:22:17.936Z,46.7660
2023-06-29T00:23:20.200Z,46.8050
2023-06-29T00:24:20.277Z,46.8860
2023-06-29T00:25:22.516Z,47.0130
2023-06-29T00:26:24.788Z,47.1100
2023-06-29T00:27:27.048Z,47.2830
2023-06-29T00:28:29.309Z,47.4630
2023-06-29T00:29:31.592Z,47.6350
2023-06-29T00:30:33.839Z,47.7280
2023-06-29T00:31:36.370Z,47.8770
2023-06-29T00:32:38.376Z,47.8890
2023-06-29T00:33:38.444Z,47.8970
2023-06-29T00:34:40.692Z,47.7840
2023-06-29T00:35:43.328Z,47.7340
2023-06-29T00:36:45.272Z,47.6930
2023-06-29T00:37:47.586Z,47.6870
2023-06-29T00:38:49.860Z,47.6530
2023-06-29T00:39:52.172Z,47.7030
2023-06-29T00:40:54.467Z,47.7640
2023-06-29T00:41:54.608Z,47.8500
2023-06-29T00:42:56.857Z,47.9490
2023-06-29T00:43:59.102Z,48.0170
2023-06-29T00:45:01.405Z,48.0580
2023-06-29T00:46:03.660Z,48.1700
2023-06-29T00:47:05.959Z,48.0480
2023-06-29T00:48:08.203Z,48.0230
2023-06-29T00:49:08.265Z,47.9900
2023-06-29T00:50:10.531Z,47.9370
2023-06-29T00:51:12.807Z,47.9180
2023-06-29T00:52:15.098Z,48.0460
2023-06-29T00:53:17.325Z,48.1450
2023-06-29T00:54:19.568Z,48.2140
2023-06-29T00:55:21.823Z,48.2450
2023-06-29T00:56:24.098Z,48.3240
2023-06-29T00:57:26.391Z,48.3930
2023-06-29T00:58:26.543Z,48.3820
2023-06-29T00:59:28.811Z,48.4720
2023-06-29T01:00:31.159Z,48.4950
2023-06-29T01:01:33.394Z,48.4420
2023-06-29T01:02:35.693Z,48.4080
2023-06-29T01:03:38.024Z,48.3670
2023-06-29T01:04:40.163Z,48.2900
2023-06-29T01:05:42.696Z,48.2150
2023-06-29T01:06:42.534Z,48.1350
2023-06-29T01:07:44.805Z,48.1440
2023-06-29T01:08:47.023Z,48.1170
2023-06-29T01:09:49.248Z,48.0680
2023-06-29T01:10:51.514Z,48.0740
2023-06-29T01:11:53.791Z,48.0230
2023-06-29T01:12:56.064Z,48.0300
2023-06-29T01:13:58.320Z,48.0520
2023-06-29T01:15:00.562Z,48.1780
2023-06-29T01:16:00.683Z,48.1210
2023-06-29T01:18:05.412Z,48.1570
2023-06-29T01:19:07.557Z,48.1270
2023-06-29T01:20:09.715Z,48.1030
2023-06-29T01:21:11.913Z,48.0740
2023-06-29T01:22:14.192Z,48.0480
2023-06-29T01:23:16.425Z,48.1030
2023-06-29T01:24:18.687Z,48.1960
2023-06-29T01:25:20.933Z,48.1330
2023-06-29T01:26:23.198Z,48.1840
2023-06-29T01:27:23.311Z,48.1740
2023-06-29T01:28:25.568Z,48.2040
2023-06-29T01:29:35.022Z,48.2300
2023-06-29T01:30:35.351Z,48.3840
2023-06-29T01:31:37.700Z,48.5920
2023-06-29T01:32:39.934Z,48.7480
2023-06-29T01:33:42.143Z,48.9120
2023-06-29T01:34:42.273Z,49.0000
2023-06-29T01:35:44.828Z,49.1650
2023-06-29T01:36:46.776Z,49.2420
2023-06-29T01:37:49.060Z,49.3150
2023-06-29T01:38:49.207Z,49.4460
2023-06-29T01:39:51.482Z,49.5320
2023-06-29T01:40:53.749Z,49.6480
2023-06-29T01:41:56.037Z,49.7450
2023-06-29T01:42:56.186Z,49.8450
2023-06-29T01:43:58.482Z,49.8740
2023-06-29T01:45:00.774Z,49.9330
2023-06-29T01:46:03.023Z,50.0140
2023-06-29T01:47:03.191Z,49.9790
2023-06-29T01:48:05.517Z,50.0650
2023-06-29T01:49:07.779Z,50.1370
2023-06-29T01:50:10.110Z,50.1670
2023-06-29T01:51:12.414Z,50.2130
2023-06-29T01:52:14.713Z,50.2190
2023-06-29T01:53:17.067Z,50.2500
2023-06-29T01:54:19.328Z,50.2540
2023-06-29T01:55:21.625Z,50.1190
2023-06-29T01:56:23.923Z,50.0550
2023-06-29T01:57:24.082Z,50.0330
2023-06-29T01:58:26.355Z,49.9180
2023-06-29T01:59:28.656Z,49.8950
2023-06-29T02:00:30.910Z,49.9670
2023-06-29T02:01:31.028Z,49.9980
2023-06-29T02:02:33.298Z,50.0120
2023-06-29T02:03:35.483Z,50.0120
2023-06-29T02:04:37.617Z,50.0180
2023-06-29T02:05:39.834Z,50.0180
2023-06-29T02:06:39.898Z,50.0310
2023-06-29T02:07:42.113Z,50.1000
2023-06-29T02:08:44.336Z,50.1430
2023-06-29T02:09:46.546Z,50.1620
2023-06-29T02:10:48.750Z,50.2440
2023-06-29T02:11:48.809Z,50.3120
2023-06-29T02:12:51.040Z,50.3960
2023-06-29T02:13:53.192Z,50.4180
2023-06-29T02:14:55.359Z,50.5280
2023-06-29T02:15:57.623Z,50.6140
2023-06-29T02:16:59.784Z,50.6790
2023-06-29T02:18:02.062Z,50.7100
2023-06-29T02:19:04.207Z,50.7080
2023-06-29T02:20:06.369Z,50.7910
2023-06-29T02:21:08.582Z,50.7560
2023-06-29T02:22:08.654Z,50.8030
2023-06-29T02:23:10.784Z,50.7930
2023-06-29T02:24:12.975Z,50.7250
2023-06-29T02:25:15.160Z,50.6420
2023-06-29T02:26:17.343Z,50.6480
2023-06-29T02:27:19.495Z,50.6420
2023-06-29T02:28:21.671Z,50.7100
2023-06-29T02:29:23.847Z,50.6960
2023-06-29T02:30:26.019Z,50.7390
2023-06-29T02:31:28.293Z,50.7390
2023-06-29T02:32:30.492Z,50.7100
2023-06-29T02:33:30.513Z,50.7860
2023-06-29T02:34:32.728Z,50.7980
2023-06-29T02:35:34.856Z,50.8800
2023-06-29T02:36:37.019Z,50.8470
2023-06-29T02:37:39.162Z,50.8450
2023-06-29T02:38:41.298Z,50.7610
2023-06-29T02:39:43.435Z,50.7340
2023-06-29T02:40:45.605Z,50.7980
2023-06-29T02:41:47.850Z,50.8610
2023-06-29T02:42:50.094Z,50.8860
2023-06-29T02:43:52.356Z,50.9540
2023-06-29T02:44:54.607Z,50.9720
2023-06-29T02:45:56.944Z,51.0640
2023-06-29T02:46:59.091Z,51.1180
2023-06-29T02:48:01.464Z,51.1180
2023-06-29T02:49:03.635Z,51.0990
2023-06-29T02:50:05.843Z,51.1050
2023-06-29T02:51:08.123Z,51.1900
2023-06-29T02:52:08.313Z,51.2210
2023-06-29T02:53:10.618Z,51.2230
2023-06-29T02:54:12.918Z,51.2290
2023-06-29T02:55:15.153Z,51.2420
2023-06-29T02:56:15.285Z,51.2540
2023-06-29T02:57:17.540Z,51.3240
2023-06-29T02:58:19.807Z,51.3720
2023-06-29T02:59:22.071Z,51.3840
2023-06-29T03:00:24.248Z,51.4980
2023-06-29T03:01:26.496Z,51.5620
2023-06-29T03:02:28.798Z,51.6510
2023-06-29T03:03:31.025Z,51.7000
2023-06-29T03:04:33.231Z,51.7310
2023-06-29T03:05:35.526Z,51.7580
2023-06-29T03:06:37.869Z,51.7420
2023-06-29T03:07:40.261Z,51.8260
2023-06-29T03:08:42.437Z,51.8200
2023-06-29T03:09:44.740Z,51.8260
2023-06-29T03:10:47.099Z,51.8800
2023-06-29T03:11:49.320Z,51.8770
2023-06-29T03:12:51.604Z,51.9130
2023-06-29T03:13:53.866Z,51.9910
2023-06-29T03:14:53.992Z,51.9660
2023-06-29T03:15:56.248Z,52.0330
2023-06-29T03:16:58.511Z,52.0040
2023-06-29T03:18:00.799Z,51.9750
2023-06-29T03:19:03.002Z,51.9960
2023-06-29T03:20:05.226Z,52.0140
2023-06-29T03:21:17.091Z,52.0080
2023-06-29T03:22:09.629Z,51.9920
2023-06-29T03:23:11.881Z,51.9450
2023-06-29T03:24:14.150Z,51.8910
2023-06-29T03:25:16.419Z,51.8620
2023-06-29T03:26:18.643Z,51.8430
2023-06-29T03:27:20.921Z,51.7790
2023-06-29T03:28:23.217Z,51.8120
2023-06-29T03:29:25.455Z,51.8000
2023-06-29T03:30:27.722Z,51.7910
2023-06-29T03:31:30.054Z,51.7910
2023-06-29T03:32:32.299Z,51.8120
2023-06-29T03:33:34.561Z,51.8370
2023-06-29T03:34:36.712Z,51.8310
2023-06-29T03:35:38.941Z,51.8120
2023-06-29T03:36:41.176Z,51.8310
2023-06-29T03:37:43.427Z,51.8500
2023-06-29T03:38:45.661Z,51.8430
2023-06-29T03:39:47.920Z,51.8850
2023-06-29T03:40:50.190Z,51.9550
2023-06-29T03:41:52.434Z,51.9570
2023-06-29T03:42:54.717Z,51.9820
2023-06-29T03:43:56.979Z,52.0210
2023-06-29T03:44:59.192Z,52.0210
2023-06-29T03:46:01.424Z,52.1510
2023-06-29T03:47:03.647Z,51.9740
2023-06-29T03:48:05.970Z,52.0140
2023-06-29T03:49:08.094Z,52.0650
2023-06-29T03:50:10.382Z,52.1350
2023-06-29T03:51:12.625Z,52.1830
2023-06-29T03:52:14.907Z,52.2770
2023-06-29T03:53:17.171Z,52.3390
2023-06-29T03:54:19.462Z,52.3430
2023-06-29T03:55:21.732Z,52.3680
2023-06-29T03:56:23.984Z,52.3720
2023-06-29T03:57:26.218Z,52.4260
2023-06-29T03:58:28.509Z,52.5400
2023-06-29T03:59:30.802Z,52.7290
2023-06-29T04:00:33.072Z,52.9240
2023-06-29T04:01:35.403Z,53.0530
2023-06-29T04:02:37.701Z,53.1580
2023-06-29T04:03:40.003Z,53.1910
2023-06-29T04:04:42.290Z,53.2750
2023-06-29T04:05:42.717Z,53.2000
2023-06-29T04:06:44.757Z,53.1310
2023-06-29T04:07:47.008Z,53.0330
2023-06-29T04:08:49.251Z,53.0520
2023-06-29T04:09:51.523Z,53.0010
2023-06-29T04:10:53.804Z,53.0100
2023-06-29T04:11:56.089Z,53.0260
2023-06-29T04:12:56.236Z,53.0550
2023-06-29T04:13:58.529Z,53.1910
2023-06-29T04:15:01.044Z,53.3500
2023-06-29T04:16:03.115Z,53.5620
2023-06-29T04:17:03.254Z,53.6240
2023-06-29T04:18:05.586Z,53.7360
2023-06-29T04:19:07.866Z,53.7090
2023-06-29T04:20:10.176Z,53.6530
2023-06-29T04:21:12.422Z,53.6510
2023-06-29T04:22:14.715Z,53.5740
2023-06-29T04:23:16.942Z,53.5370
2023-06-29T04:24:17.081Z,53.5000
2023-06-29T04:25:19.403Z,53.5190
2023-06-29T04:26:21.675Z,53.5560
2023-06-29T04:27:23.959Z,53.5620
2023-06-29T04:28:24.085Z,53.5860
2023-06-29T04:29:26.400Z,53.5770
2023-06-29T04:30:28.713Z,53.5120
2023-06-29T04:31:30.985Z,53.5670
2023-06-29T04:32:33.294Z,53.4920
2023-06-29T04:33:35.585Z,53.4220
2023-06-29T04:34:37.874Z,53.3610
2023-06-29T04:35:38.085Z,53.3010
2023-06-29T04:36:40.315Z,53.3320
2023-06-29T04:37:42.634Z,53.2990
2023-06-29T04:38:44.819Z,53.3050
2023-06-29T04:39:44.953Z,53.3430
2023-06-29T04:40:47.244Z,53.3430
2023-06-29T04:41:49.556Z,53.3890
2023-06-29T04:42:51.819Z,53.3240
2023-06-29T04:43:54.113Z,53.3300
2023-06-29T04:44:56.392Z,53.3240
2023-06-29T04:45:58.706Z,53.2990
2023-06-29T04:46:58.793Z,53.2830
2023-06-29T04:48:01.086Z,53.3020
2023-06-29T04:49:03.339Z,53.3290
2023-06-29T04:50:05.616Z,53.2640
2023-06-29T04:51:05.775Z,53.1990
2023-06-29T04:52:08.006Z,53.2390
2023-06-29T04:53:10.553Z,53.3120
2023-06-29T04:54:12.587Z,53.3610
2023-06-29T04:55:12.776Z,53.4260
2023-06-29T04:56:15.082Z,53.5430
2023-06-29T04:57:17.356Z,53.6480
2023-06-29T04:58:19.656Z,53.7860
2023-06-29T04:59:21.895Z,53.7240
2023-06-29T05:00:24.242Z,53.6970
2023-06-29T05:01:26.591Z,53.6140
2023-06-29T05:02:28.966Z,53.6270
2023-06-29T05:03:31.300Z,53.6400
2023-06-29T05:04:34.520Z,53.6520
2023-06-29T05:05:35.906Z,53.6260
2023-06-29T05:07:21.399Z,53.2900
2023-06-29T05:08:23.545Z,53.0570
2023-06-29T05:09:25.763Z,52.9710
2023-06-29T05:10:28.022Z,52.9460
2023-06-29T05:11:32.018Z,52.9290
2023-06-29T05:12:32.617Z,53.0590
2023-06-29T05:13:34.836Z,53.0910
2023-06-29T05:14:37.086Z,53.0890
2023-06-29T05:15:37.208Z,53.0630
2023-06-29T05:16:39.538Z,52.9510
2023-06-29T05:17:41.813Z,52.9580
2023-06-29T05:18:44.042Z,52.9410
2023-06-29T05:19:46.238Z,52.8620
2023-06-29T05:20:48.553Z,52.7770
2023-06-29T05:21:49.597Z,52.9270
2023-06-29T05:22:49.737Z,53.1630
2023-06-29T05:23:52.044Z,53.2430
2023-06-29T05:24:54.307Z,53.2370
2023-06-29T05:25:56.592Z,53.2850
2023-06-29T05:26:56.733Z,53.4250
2023-06-29T05:27:58.975Z,53.4130
2023-06-29T05:29:05.904Z,53.3770
2023-06-29T05:30:03.512Z,53.3880
2023-06-29T05:31:03.655Z,53.3900
2023-06-29T05:32:05.829Z,53.4030
2023-06-29T05:33:09.043Z,53.3120
2023-06-29T05:34:10.319Z,53.2980
2023-06-29T05:35:12.599Z,53.2730
2023-06-29T05:36:14.869Z,53.3480
2023-06-29T05:37:17.148Z,53.3240
2023-06-29T05:38:19.428Z,53.3430
2023-06-29T05:39:19.567Z,53.3760
2023-06-29T05:40:21.800Z,53.4370
2023-06-29T05:41:24.073Z,53.4500
2023-06-29T05:42:26.342Z,53.4420
2023-06-29T05:43:26.485Z,53.4150
2023-06-29T05:44:28.686Z,53.4190
2023-06-29T05:45:30.963Z,53.4110
2023-06-29T05:46:33.130Z,53.3460
2023-06-29T05:47:35.327Z,53.3080
2023-06-29T05:48:35.430Z,53.3710
2023-06-29T05:49:37.627Z,53.3770
2023-06-29T05:50:39.808Z,53.4340
2023-06-29T05:51:42.052Z,53.4270
2023-06-29T05:52:44.284Z,53.3820
2023-06-29T05:53:44.405Z,53.4220
2023-06-29T05:54:46.625Z,53.3880
2023-06-29T05:55:48.851Z,53.4060
2023-06-29T05:56:51.090Z,53.4120
2023-06-29T05:57:53.287Z,53.4040
2023-06-29T05:58:55.637Z,53.3760
2023-06-29T05:59:57.743Z,53.3750
2023-06-29T06:00:59.974Z,53.4210
2023-06-29T06:02:02.199Z,53.3810
2023-06-29T06:03:04.566Z,53.4100
2023-06-29T06:04:06.897Z,53.3260
2023-06-29T06:05:09.018Z,53.2910
2023-06-29T06:06:11.199Z,53.2700
2023-06-29T06:07:13.513Z,53.2660
2023-06-29T06:08:16.037Z,53.3360
2023-06-29T06:09:18.080Z,53.3480
2023-06-29T06:10:18.120Z,53.3190
2023-06-29T06:11:20.339Z,53.2050
2023-06-29T06:12:22.579Z,53.1160
2023-06-29T06:13:24.801Z,53.3970
2023-06-29T06:14:27.078Z,53.1040
2023-06-29T06:15:29.256Z,53.1110
2023-06-29T06:16:31.577Z,53.1820
2023-06-29T06:17:33.712Z,53.2600
2023-06-29T06:18:35.923Z,53.2720
2023-06-29T06:19:35.996Z,53.2240
2023-06-29T06:20:38.222Z,53.2540
2023-06-29T06:21:40.507Z,53.2480
2023-06-29T06:22:42.777Z,53.2140
2023-06-29T06:23:44.983Z,53.1900
2023-06-29T06:24:47.237Z,52.9520
2023-06-29T06:25:49.490Z,52.7490
2023-06-29T06:26:51.704Z,52.8160
2023-06-29T06:27:54.084Z,52.8280
2023-06-29T06:28:56.221Z,52.7600
2023-06-29T06:29:58.458Z,53.0050
2023-06-29T06:31:00.762Z,52.6040
2023-06-29T06:32:00.829Z,52.3590
2023-06-29T06:33:03.116Z,52.3030
2023-06-29T06:34:05.304Z,52.4390
2023-06-29T06:35:07.568Z,52.3550
2023-06-29T06:36:10.756Z,52.3330
2023-06-29T06:37:12.050Z,52.2220
2023-06-29T06:38:14.332Z,51.9310
2023-06-29T06:39:16.619Z,51.8860
2023-06-29T06:40:17.515Z,51.8860
2023-06-29T06:41:19.048Z,51.9630
2023-06-29T06:42:21.245Z,52.2390
2023-06-29T06:43:23.456Z,51.9860
2023-06-29T06:44:25.656Z,51.9990
2023-06-29T06:45:28.014Z,51.9970
2023-06-29T06:46:30.097Z,52.1760
2023-06-29T06:47:32.253Z,52.1530
2023-06-29T06:48:34.440Z,52.2280
2023-06-29T06:49:36.644Z,51.8760
2023-06-29T06:50:38.878Z,51.7810
2023-06-29T06:51:40.957Z,51.8770
2023-06-29T06:52:43.114Z,51.8870
2023-06-29T06:53:45.304Z,51.7690
2023-06-29T06:54:47.506Z,51.9480
2023-06-29T06:55:49.726Z,51.7630
2023-06-29T06:56:51.917Z,51.9790
2023-06-29T06:57:54.072Z,52.0610
2023-06-29T06:58:56.232Z,51.5810
2023-06-29T06:59:58.414Z,51.7120
2023-06-29T07:01:00.635Z,51.9420
2023-06-29T07:02:02.849Z,52.0630
2023-06-29T07:03:05.138Z,52.2670
2023-06-29T07:04:07.186Z,51.8800
2023-06-29T07:05:09.410Z,51.8290
2023-06-29T07:06:11.614Z,51.7000
2023-06-29T07:07:13.841Z,51.3660
2023-06-29T07:08:15.988Z,51.0840
2023-06-29T07:09:18.138Z,51.0020
2023-06-29T07:10:20.305Z,50.8240
2023-06-29T07:11:22.486Z,50.6140
2023-06-29T07:12:24.744Z,50.5760
2023-06-29T07:13:26.815Z,50.5640
2023-06-29T07:14:29.025Z,50.5230
2023-06-29T07:15:31.258Z,50.4840
2023-06-29T07:16:33.568Z,50.4280
2023-06-29T07:17:35.709Z,50.4080
2023-06-29T07:18:37.852Z,50.3950
2023-06-29T07:21:42.506Z,50.3110
2023-06-29T07:24:48.969Z,50.2430
2023-06-29T07:25:51.133Z,50.2180
2023-06-29T07:26:53.359Z,50.2250
2023-06-29T07:27:55.604Z,50.2000
2023-06-29T07:28:57.673Z,50.1660
2023-06-29T07:29:59.916Z,50.1510
2023-06-29T07:31:03.239Z,50.1180
2023-06-29T07:32:04.466Z,50.1250
2023-06-29T07:33:06.668Z,50.1160
2023-06-29T07:34:08.856Z,50.0770
2023-06-29T07:35:08.958Z,50.0590
2023-06-29T07:36:11.176Z,50.0470
2023-06-29T07:37:13.618Z,50.0410
2023-06-29T07:38:15.657Z,50.0080
2023-06-29T07:39:17.903Z,50.0180
2023-06-29T07:40:20.144Z,50.0120
2023-06-29T07:41:22.410Z,50.0290
2023-06-29T07:42:38.019Z,50.0570
2023-06-29T07:43:26.937Z,50.0000
2023-06-29T07:44:29.117Z,49.9710
2023-06-29T07:45:31.346Z,49.9470
2023-06-29T07:46:33.562Z,49.9180
2023-06-29T07:47:35.919Z,49.9300
2023-06-29T07:48:38.222Z,49.9180
2023-06-29T07:49:40.258Z,49.8810
2023-06-29T07:50:42.497Z,49.8540
2023-06-29T07:51:44.714Z,49.8400
2023-06-29T07:52:44.873Z,49.8130
2023-06-29T07:53:47.125Z,49.8120
2023-06-29T07:54:49.412Z,49.8200
2023-06-29T07:55:51.696Z,49.8120
2023-06-29T07:58:58.634Z,49.7190
2023-06-29T07:59:58.768Z,49.7320
2023-06-29T08:01:01.004Z,49.7010
2023-06-29T08:02:03.292Z,49.7080
2023-06-29T08:03:05.569Z,49.7260
2023-06-29T08:04:05.783Z,49.7080
2023-06-29T08:07:12.454Z,49.6990
2023-06-29T08:08:14.734Z,49.6990
2023-06-29T08:09:16.957Z,49.6910
2023-06-29T08:10:19.225Z,49.6650
2023-06-29T08:11:21.515Z,49.6770
2023-06-29T08:12:23.804Z,49.6460
2023-06-29T08:13:26.082Z,49.6460
2023-06-29T08:14:28.440Z,49.6360
2023-06-29T08:15:28.530Z,49.6360
2023-06-29T08:16:30.824Z,49.6240
2023-06-29T08:17:33.104Z,49.6020
2023-06-29T08:18:35.392Z,49.5950
2023-06-29T08:21:01.465Z,49.3910
2023-06-29T08:22:03.572Z,49.2320
2023-06-29T08:23:05.773Z,49.1050
2023-06-29T08:24:07.969Z,49.0570
2023-06-29T08:25:10.173Z,49.0220
2023-06-29T08:26:12.414Z,48.9750
2023-06-29T08:27:14.617Z,48.9470
2023-06-29T08:28:16.848Z,48.9080
2023-06-29T08:29:19.120Z,48.8770
2023-06-29T08:30:19.216Z,48.9020
2023-06-29T08:31:21.477Z,48.8940
2023-06-29T08:32:23.797Z,48.8670
2023-06-29T08:33:24.924Z,48.9490
2023-06-29T08:34:26.992Z,49.1400
2023-06-29T08:35:29.215Z,49.2670
2023-06-29T08:36:29.289Z,49.3320
2023-06-29T08:37:31.572Z,49.3850
2023-06-29T08:38:33.774Z,49.3980
2023-06-29T08:39:36.034Z,49.4040
2023-06-29T08:40:38.274Z,49.4120
2023-06-29T08:41:40.505Z,49.4250
2023-06-29T08:42:42.737Z,49.4250
2023-06-29T08:43:44.976Z,49.4080
2023-06-29T08:44:47.210Z,49.4270
2023-06-29T08:45:49.483Z,49.4140
2023-06-29T08:46:51.621Z,49.4180
2023-06-29T08:47:53.832Z,49.4180
2023-06-29T08:48:56.011Z,49.4310
2023-06-29T08:49:58.156Z,49.4430
2023-06-29T08:51:00.332Z,49.4270
2023-06-29T08:52:02.536Z,49.4600
2023-06-29T08:53:04.875Z,49.4560
2023-06-29T08:54:06.961Z,49.4560
2023-06-29T08:55:09.169Z,49.4310
2023-06-29T08:56:11.325Z,49.4270
2023-06-29T08:57:13.518Z,49.4090
2023-06-29T08:58:15.700Z,49.4330
2023-06-29T08:59:17.943Z,49.4210
2023-06-29T09:00:17.987Z,49.4010
2023-06-29T09:01:20.300Z,49.4070
2023-06-29T09:02:22.438Z,49.4130
2023-06-29T09:03:24.789Z,49.4420
2023-06-29T09:04:26.833Z,49.4360
2023-06-29T09:05:26.934Z,49.4650
2023-06-29T09:06:30.150Z,49.4610
2023-06-29T09:07:31.408Z,49.4930
2023-06-29T09:08:33.563Z,49.4420
2023-06-29T09:09:35.798Z,49.4420
2023-06-29T09:10:35.867Z,49.6410
2023-06-29T09:11:38.122Z,49.5080
2023-06-29T09:12:40.276Z,49.5140
2023-06-29T09:13:42.435Z,49.5650
2023-06-29T09:14:44.580Z,49.5060
2023-06-29T09:15:46.824Z,49.4940
2023-06-29T09:16:46.807Z,49.7070
2023-06-29T09:17:49.031Z,50.0940
2023-06-29T09:18:51.099Z,50.1040
2023-06-29T09:19:53.263Z,49.9970
2023-06-29T09:20:55.436Z,49.8470
2023-06-29T09:21:57.577Z,49.7120
2023-06-29T09:22:59.718Z,49.6610
2023-06-29T09:24:01.876Z,49.6110
2023-06-29T09:25:10.330Z,49.6010
2023-06-29T09:26:06.312Z,49.5720
2023-06-29T09:27:08.398Z,49.5310
2023-06-29T09:28:10.582Z,49.4820
2023-06-29T09:29:12.714Z,49.5260
2023-06-29T09:30:14.852Z,49.5770
2023-06-29T09:31:17.049Z,49.5710
2023-06-29T09:32:19.194Z,49.5180
2023-06-29T09:33:21.295Z,49.5410
2023-06-29T09:34:23.489Z,49.4660
2023-06-29T09:35:25.611Z,49.4350
2023-06-29T09:36:27.788Z,49.4250
2023-06-29T09:37:14.621Z,49.3670
2023-06-29T09:38:15.169Z,49.1580
2023-06-29T09:39:17.289Z,48.9800
2023-06-29T09:40:19.516Z,48.8760
2023-06-29T09:41:21.723Z,48.8020
2023-06-29T09:42:23.954Z,48.7720
2023-06-29T09:43:26.137Z,48.7330
2023-06-29T09:44:28.387Z,48.6970
2023-06-29T09:45:30.622Z,48.6970
2023-06-29T09:46:32.823Z,48.6850
2023-06-29T09:49:39.539Z,48.8090
2023-06-29T09:50:40.731Z,48.9230
2023-06-29T09:51:42.855Z,49.2210
2023-06-29T09:52:45.059Z,49.2740
2023-06-29T09:53:47.237Z,49.3330
2023-06-29T09:54:49.448Z,49.3430
2023-06-29T09:55:51.647Z,49.3960
2023-06-29T09:56:53.907Z,49.4290
2023-06-29T09:57:56.076Z,49.4970
2023-06-29T09:58:58.260Z,49.5350
2023-06-29T10:00:00.474Z,49.4590
2023-06-29T10:01:02.786Z,49.6810
2023-06-29T10:02:02.794Z,49.6240
2023-06-29T10:03:05.130Z,49.5420
2023-06-29T10:04:07.184Z,49.6560
2023-06-29T10:05:09.410Z,49.5480
2023-06-29T10:06:11.642Z,49.5350
2023-06-29T10:07:13.967Z,49.5050
2023-06-29T10:08:16.146Z,49.4840
2023-06-29T10:09:18.363Z,49.4470
2023-06-29T10:10:20.627Z,49.4470
2023-06-29T10:11:22.853Z,49.4590
2023-06-29T10:12:25.098Z,49.4530
2023-06-29T10:13:27.344Z,49.4590
2023-06-29T10:14:29.565Z,49.4470
2023-06-29T10:15:31.879Z,49.4410
2023-06-29T10:16:34.132Z,49.4840
2023-06-29T10:17:36.371Z,49.4530
2023-06-29T10:18:38.602Z,49.4530
2023-06-29T10:19:40.817Z,49.4470
2023-06-29T10:20:43.372Z,49.4490
2023-06-29T10:21:45.151Z,49.4310
2023-06-29T10:22:47.302Z,49.4190
2023-06-29T10:23:47.425Z,49.4130
2023-06-29T10:24:49.691Z,49.4190
2023-06-29T10:25:51.965Z,49.4060
2023-06-29T10:26:54.216Z,49.3960
2023-06-29T10:27:56.450Z,49.3650
2023-06-29T10:28:58.688Z,49.3530
2023-06-29T10:30:00.916Z,49.3530
2023-06-29T10:31:03.259Z,49.3330
2023-06-29T10:32:03.307Z,49.3550
2023-06-29T10:33:05.561Z,49.3370
2023-06-29T10:34:07.778Z,49.3240
2023-06-29T10:35:09.987Z,49.3370
2023-06-29T10:36:12.259Z,49.3430
2023-06-29T10:37:14.517Z,49.3180
2023-06-29T10:38:16.794Z,49.3060
2023-06-29T10:39:19.092Z,49.3060
2023-06-29T10:40:19.223Z,49.2980
2023-06-29T10:41:21.499Z,49.3060
2023-06-29T10:42:23.791Z,49.2920
2023-06-29T10:43:26.050Z,49.2860
2023-06-29T10:44:26.168Z,49.2670
2023-06-29T10:45:28.368Z,49.2430
2023-06-29T10:46:30.641Z,49.2720
2023-06-29T10:47:32.817Z,49.2780
2023-06-29T10:48:47.754Z,49.2450
2023-06-29T10:49:35.192Z,49.2650
2023-06-29T10:50:37.399Z,49.2510
2023-06-29T10:51:39.645Z,49.2540
2023-06-29T10:52:41.842Z,49.3850
2023-06-29T10:53:44.077Z,49.3150
2023-06-29T10:54:46.370Z,49.4050
2023-06-29T10:55:48.553Z,49.3010
2023-06-29T10:56:50.781Z,49.2890
2023-06-29T10:57:53.001Z,49.2820
2023-06-29T10:58:55.241Z,49.2210
2023-06-29T10:59:57.478Z,49.2400
2023-06-29T11:00:59.667Z,49.2030
2023-06-29T11:02:01.983Z,49.2210
2023-06-29T11:03:04.133Z,49.1720
2023-06-29T11:04:06.453Z,49.1640
2023-06-29T11:06:34.683Z,48.9870
2023-06-29T11:07:36.726Z,48.8120
2023-06-29T11:08:38.766Z,48.7200
2023-06-29T11:09:40.935Z,48.6610
2023-06-29T11:10:43.185Z,48.6000
2023-06-29T11:11:45.187Z,48.5930
2023-06-29T11:12:47.346Z,48.5810
2023-06-29T11:13:49.518Z,48.5200
2023-06-29T11:15:02.290Z,48.5270
2023-06-29T11:15:53.915Z,48.5390
2023-06-29T11:16:56.247Z,48.5100
2023-06-29T11:17:58.356Z,48.4980
2023-06-29T11:19:00.445Z,48.4720
2023-06-29T11:20:01.547Z,48.5340
2023-06-29T11:21:03.754Z,48.7480
2023-06-29T11:22:03.868Z,48.8730
2023-06-29T11:23:06.048Z,48.9350
2023-06-29T11:24:08.269Z,48.9600
2023-06-29T11:25:10.481Z,49.0070
2023-06-29T11:26:12.688Z,49.0210
2023-06-29T11:27:12.752Z,49.0270
2023-06-29T11:28:14.965Z,49.0700
2023-06-29T11:29:17.216Z,49.0520
2023-06-29T11:30:19.419Z,49.0520
2023-06-29T11:31:21.639Z,49.0400
2023-06-29T11:32:23.751Z,49.0330
2023-06-29T11:34:28.100Z,49.0580
2023-06-29T11:35:30.287Z,49.0620
2023-06-29T11:36:32.391Z,49.0560
2023-06-29T11:37:34.553Z,49.0230
2023-06-29T11:38:36.719Z,49.0170
2023-06-29T11:39:38.889Z,49.0360
2023-06-29T11:40:41.058Z,48.9990
2023-06-29T11:41:43.276Z,49.0170
2023-06-29T11:42:45.606Z,48.9990
2023-06-29T11:43:47.625Z,49.0120
2023-06-29T11:44:49.824Z,48.9990
2023-06-29T11:45:52.035Z,48.9930
2023-06-29T11:47:05.895Z,48.9750
2023-06-29T11:47:56.452Z,48.9990
2023-06-29T11:48:56.469Z,48.9810
2023-06-29T11:49:58.616Z,48.9560
2023-06-29T11:51:00.883Z,48.9650
2023-06-29T11:52:03.044Z,48.9710
2023-06-29T11:53:05.310Z,48.9830
2023-06-29T11:54:07.502Z,48.9970
2023-06-29T11:55:09.691Z,49.0060
2023-06-29T11:56:11.922Z,49.0240
2023-06-29T11:57:14.126Z,49.0180
2023-06-29T11:58:16.328Z,48.9690
2023-06-29T11:59:16.394Z,48.9750
2023-06-29T12:00:18.673Z,48.9500
2023-06-29T12:01:22.674Z,48.9500
2023-06-29T12:02:23.059Z,48.9360
2023-06-29T12:03:25.505Z,48.9180
2023-06-29T12:04:27.692Z,48.9300
2023-06-29T12:05:29.720Z,48.9630
2023-06-29T12:06:31.953Z,48.9340
2023-06-29T12:07:34.336Z,48.9340
2023-06-29T12:08:34.387Z,48.9400
2023-06-29T12:09:36.539Z,48.9220
2023-06-29T12:10:38.730Z,48.9340
2023-06-29T12:11:41.018Z,48.9280
2023-06-29T12:12:43.205Z,48.8950
2023-06-29T12:13:45.515Z,48.9020
2023-06-29T12:14:47.703Z,48.8770
2023-06-29T12:18:00.280Z,48.9060
2023-06-29T12:18:56.737Z,48.9100
2023-06-29T12:20:08.993Z,48.9430
2023-06-29T12:21:01.226Z,48.9120
2023-06-29T12:22:03.591Z,48.9180
2023-06-29T12:23:05.588Z,48.9000
2023-06-29T12:24:07.898Z,48.8960
2023-06-29T12:25:10.088Z,48.9100
2023-06-29T12:26:12.303Z,48.8940
2023-06-29T12:27:14.524Z,48.9000
2023-06-29T12:28:16.765Z,48.8870
2023-06-29T12:29:19.035Z,48.8710
2023-06-29T12:30:21.322Z,48.8770
2023-06-29T12:31:23.506Z,48.8540
2023-06-29T12:32:25.764Z,48.9050
2023-06-29T12:33:27.940Z,48.8720
2023-06-29T12:34:30.199Z,48.8640
2023-06-29T12:35:32.442Z,48.8130
2023-06-29T12:36:34.685Z,48.8190
2023-06-29T12:37:36.877Z,48.8070
2023-06-29T12:38:39.067Z,48.8310
2023-06-29T12:39:41.291Z,48.8430
2023-06-29T12:40:43.417Z,48.8000
2023-06-29T12:41:45.581Z,48.8190
2023-06-29T12:42:47.710Z,48.8070
2023-06-29T12:43:47.790Z,48.7940
2023-06-29T12:44:50.023Z,48.7880
2023-06-29T12:45:52.185Z,48.7880
2023-06-29T12:46:54.485Z,48.8010
2023-06-29T12:47:56.669Z,48.7940